Time;durP1;ratioP1;P1;durP2;ratioP2;P2;SDS_P1;SDS_P2;PMS_P1;PMS_P2;Temp;Humidity;BMP_temperature;BMP_pressure;BME280_temperature;BME280_humidity;BME280_pressure;Samples;Min_cycle;Max_cycle;Signal;HPM_P1;HPM_P2
2021/12/06 00:02:27;;;;;;;68.97;32.20;;;;;;;-1.12;100.00;98844.28;4882166;29;20045;-78
2021/12/06 00:05:14;;;;;;;69.80;33.50;;;;;;;-1.10;100.00;98846.88;4881999;29;20065;-78
2021/12/06 00:07:59;;;;;;;74.30;34.65;;;;;;;-1.02;100.00;98846.03;4882257;29;20045;-78
2021/12/06 00:10:44;;;;;;;74.80;36.08;;;;;;;-1.16;100.00;98850.25;4882586;29;20053;-78
2021/12/06 00:13:29;;;;;;;83.55;36.83;;;;;;;-1.06;100.00;98853.75;4882142;29;20052;-78
2021/12/06 00:16:19;;;;;;;87.60;40.08;;;;;;;-1.01;100.00;98852.94;4882598;29;20111;-78
2021/12/06 00:19:05;;;;;;;79.43;35.70;;;;;;;-1.14;100.00;98857.97;4882836;29;20082;-78
2021/12/06 00:21:50;;;;;;;84.47;39.22;;;;;;;-1.21;100.00;98865.63;4883252;29;20044;-78
2021/12/06 00:24:34;;;;;;;77.53;34.60;;;;;;;-1.12;100.00;98864.84;4882162;29;20049;-78
2021/12/06 00:27:18;;;;;;;98.70;42.72;;;;;;;-1.25;100.00;98876.72;4882642;29;20493;-78
2021/12/06 00:30:05;;;;;;;92.18;41.10;;;;;;;-1.29;100.00;98876.72;4883208;29;20056;-78
2021/12/06 00:32:49;;;;;;;91.13;40.05;;;;;;;-1.26;100.00;98882.72;4882324;29;20061;-78
2021/12/06 00:35:34;;;;;;;97.53;39.17;;;;;;;-1.28;100.00;98874.13;4882573;29;20060;-78
2021/12/06 00:38:18;;;;;;;88.03;39.30;;;;;;;-1.23;100.00;98895.59;4881695;29;20091;-78
2021/12/06 00:41:04;;;;;;;95.80;40.58;;;;;;;-1.31;100.00;98899.81;4868808;29;20056;-78
2021/12/06 00:43:49;;;;;;;94.45;41.00;;;;;;;-1.20;100.00;98907.63;4881868;29;20099;-78
2021/12/06 00:46:35;;;;;;;89.95;38.95;;;;;;;-1.24;100.00;98906.72;4881918;29;20044;-78
2021/12/06 00:49:19;;;;;;;86.47;38.35;;;;;;;-1.23;100.00;98916.16;4868834;29;20108;-78
2021/12/06 00:52:05;;;;;;;96.07;40.03;;;;;;;-1.27;100.00;98903.25;4882689;29;20049;-78
2021/12/06 00:54:50;;;;;;;95.63;41.50;;;;;;;-1.18;100.00;98911.03;4895105;29;20074;-77
2021/12/06 00:57:34;;;;;;;106.40;43.80;;;;;;;-1.29;100.00;98907.53;4881799;29;20142;-78
2021/12/06 01:00:35;;;;;;;95.40;40.88;;;;;;;-1.33;100.00;98905.78;4881731;29;20124;-78
2021/12/06 01:03:24;;;;;;;85.13;38.85;;;;;;;-1.43;100.00;98916.00;4881467;29;20045;-78
2021/12/06 01:06:10;;;;;;;99.47;41.40;;;;;;;-1.31;100.00;98917.78;4881673;29;20427;-78
2021/12/06 01:08:55;;;;;;;105.05;42.17;;;;;;;-1.42;100.00;98917.72;4868621;29;20052;-78
2021/12/06 01:11:39;;;;;;;91.97;40.75;;;;;;;-1.41;100.00;98916.00;4882172;29;20427;-78
2021/12/06 01:14:24;;;;;;;102.68;40.38;;;;;;;-1.25;100.00;98917.00;4881660;29;20052;-78
2021/12/06 01:17:08;;;;;;;84.03;37.85;;;;;;;-1.34;100.00;98911.78;4882847;29;20041;-77
2021/12/06 01:19:53;;;;;;;88.90;39.45;;;;;;;-1.37;100.00;98909.19;4885165;29;20053;-78
2021/12/06 01:22:49;;;;;;;105.85;41.92;;;;;;;-1.50;100.00;98911.63;4885412;29;20053;-78
2021/12/06 01:31:32;;;;;;;108.50;42.70;;;;;;;-1.53;100.00;98918.44;4884761;29;20045;-75
2021/12/06 01:40:19;;;;;;;112.25;42.63;;;;;;;-1.45;100.00;98922.81;4884524;29;20481;-75
2021/12/06 01:43:05;;;;;;;108.43;42.78;;;;;;;-1.37;100.00;98929.72;4885070;29;20045;-75
2021/12/06 01:45:50;;;;;;;119.60;45.95;;;;;;;-1.30;100.00;98924.69;4884458;29;20057;-75
2021/12/06 01:48:34;;;;;;;118.35;41.13;;;;;;;-1.34;100.00;98925.47;4897414;29;20103;-75
2021/12/06 01:51:18;;;;;;;123.43;44.25;;;;;;;-1.42;100.00;98933.13;4884231;29;20445;-75
2021/12/06 01:54:04;;;;;;;128.95;47.20;;;;;;;-1.50;100.00;98933.91;4884725;29;20344;-77
2021/12/06 01:56:50;;;;;;;107.30;45.08;;;;;;;-1.57;100.00;98932.97;4885113;29;20044;-77
2021/12/06 01:59:35;;;;;;;112.63;41.90;;;;;;;-1.51;100.00;98934.75;4884614;29;20049;-77
2021/12/06 02:02:21;;;;;;;119.25;41.95;;;;;;;-1.48;100.00;98935.63;4885119;29;20052;-77
2021/12/06 02:05:06;;;;;;;110.90;39.90;;;;;;;-1.44;100.00;98927.09;4884493;29;20052;-77
2021/12/06 02:07:51;;;;;;;109.95;40.85;;;;;;;-1.49;100.00;98939.06;4897920;29;20052;-77
2021/12/06 02:10:38;;;;;;;97.55;37.75;;;;;;;-1.50;100.00;98934.75;4884276;29;20045;-77
2021/12/06 02:13:29;;;;;;;102.10;40.70;;;;;;;-1.58;100.00;98935.53;4884182;29;20060;-77
2021/12/06 02:16:18;;;;;;;107.20;41.28;;;;;;;-1.55;100.00;98927.88;4884852;29;20346;-77
2021/12/06 02:19:05;;;;;;;106.63;40.85;;;;;;;-1.50;100.00;98936.47;4885057;29;20053;-77
2021/12/06 02:21:50;;;;;;;104.85;38.22;;;;;;;-1.60;100.00;98935.50;4884500;29;20067;-77
2021/12/06 02:24:37;;;;;;;100.05;37.40;;;;;;;-1.62;100.00;98929.53;4884000;29;20045;-77
2021/12/06 02:27:25;;;;;;;92.20;37.95;;;;;;;-1.63;100.00;98932.91;4883964;29;20053;-77
2021/12/06 02:30:11;;;;;;;98.70;37.90;;;;;;;-1.61;100.00;98935.50;4896044;29;20061;-77
2021/12/06 02:32:56;;;;;;;104.70;39.97;;;;;;;-1.70;100.00;98941.41;4883767;29;20053;-77
2021/12/06 02:35:41;;;;;;;91.72;35.97;;;;;;;-1.69;100.00;98948.25;4884362;29;20480;-77
2021/12/06 02:38:26;;;;;;;86.43;37.03;;;;;;;-1.78;100.00;98943.06;4883864;29;20064;-77
2021/12/06 02:41:14;;;;;;;94.10;37.13;;;;;;;-1.68;100.00;98944.88;4884389;29;20049;-77
2021/12/06 02:43:59;;;;;;;88.10;35.60;;;;;;;-1.67;100.00;98946.56;4883615;29;20049;-75
2021/12/06 02:46:43;;;;;;;86.28;34.78;;;;;;;-1.62;100.00;98954.34;4883291;29;20052;-75
2021/12/06 02:49:29;;;;;;;83.05;34.45;;;;;;;-1.52;100.00;98956.16;4883130;29;20045;-75
2021/12/06 02:52:14;;;;;;;89.70;35.13;;;;;;;-1.62;100.00;98956.91;4884170;29;20051;-75
2021/12/06 02:55:01;;;;;;;82.72;35.40;;;;;;;-1.65;100.00;98953.47;4883339;29;20063;-75
2021/12/06 02:57:47;;;;;;;97.15;35.78;;;;;;;-1.59;100.00;98949.22;4896469;29;20049;-75
2021/12/06 03:00:31;;;;;;;90.30;33.97;;;;;;;-1.71;100.00;98949.97;4883018;29;20045;-75
2021/12/06 03:03:18;;;;;;;86.40;33.67;;;;;;;-1.66;100.00;98956.88;4883004;29;20056;-75
2021/12/06 03:06:05;;;;;;;89.68;35.72;;;;;;;-1.72;100.00;98949.09;4883026;29;20081;-75
2021/12/06 03:08:58;;;;;;;91.40;35.25;;;;;;;-1.69;100.00;98940.56;4882865;29;20049;-75
2021/12/06 03:11:46;;;;;;;79.60;32.33;;;;;;;-1.64;100.00;98938.91;4882872;29;20061;-75
2021/12/06 03:14:34;;;;;;;81.53;33.00;;;;;;;-1.63;100.00;98925.22;4882660;29;20056;-75
2021/12/06 03:17:26;;;;;;;91.88;34.13;;;;;;;-1.66;100.00;98938.91;4882641;29;20395;-75
2021/12/06 03:20:14;;;;;;;98.95;36.97;;;;;;;-1.69;100.00;98945.69;4883531;29;20044;-75
2021/12/06 03:22:59;;;;;;;90.57;37.85;;;;;;;-1.63;100.00;98961.16;4882712;29;20045;-75
2021/12/06 03:25:44;;;;;;;87.45;34.47;;;;;;;-1.73;100.00;98979.88;4882694;29;20048;-75
2021/12/06 03:28:34;;;;;;;101.35;37.97;;;;;;;-1.71;100.00;98985.91;4882663;29;20084;-75
2021/12/06 03:31:18;;;;;;;104.43;36.67;;;;;;;-1.75;100.00;98981.59;4882532;29;20084;-75
2021/12/06 03:34:07;;;;;;;90.60;34.97;;;;;;;-1.83;100.00;98988.34;4882360;29;20053;-75
2021/12/06 03:36:54;;;;;;;104.40;38.00;;;;;;;-1.77;100.00;98985.84;4882790;29;20354;-76
2021/12/06 03:39:42;;;;;;;100.90;37.53;;;;;;;-1.81;100.00;99004.63;4881823;29;20096;-77
2021/12/06 03:42:30;;;;;;;96.88;37.03;;;;;;;-1.79;100.00;99013.19;4869513;29;20049;-77
2021/12/06 03:45:14;;;;;;;96.75;37.50;;;;;;;-1.70;100.00;99013.31;4882268;29;20056;-77
2021/12/06 03:47:59;;;;;;;99.95;36.60;;;;;;;-1.58;100.00;99015.16;4883013;29;20499;-77
2021/12/06 03:50:44;;;;;;;101.53;36.60;;;;;;;-1.57;100.00;99017.72;4882325;29;20045;-77
2021/12/06 03:53:30;;;;;;;105.05;36.97;;;;;;;-1.65;100.00;99017.66;4882243;29;20045;-77
2021/12/06 03:56:17;;;;;;;84.40;34.92;;;;;;;-1.64;100.00;99026.22;4882367;29;20494;-77
2021/12/06 03:59:02;;;;;;;87.32;33.88;;;;;;;-1.60;100.00;99040.81;4882123;29;20052;-77
2021/12/06 04:01:48;;;;;;;81.60;33.20;;;;;;;-1.58;100.00;99040.84;4882243;29;20045;-77
2021/12/06 04:04:37;;;;;;;94.95;36.88;;;;;;;-1.68;100.00;99033.03;4881759;29;20049;-77
2021/12/06 04:07:24;;;;;;;79.53;33.08;;;;;;;-1.68;100.00;99042.44;4869126;29;20045;-77
2021/12/06 04:10:09;;;;;;;75.47;30.63;;;;;;;-1.67;100.00;99036.44;4882018;29;20041;-77
2021/12/06 04:12:57;;;;;;;77.43;30.05;;;;;;;-1.73;100.00;99037.25;4881790;29;20359;-77
2021/12/06 04:15:44;;;;;;;80.70;32.67;;;;;;;-1.69;100.00;99040.69;4881981;29;20135;-77
2021/12/06 04:18:29;;;;;;;80.50;31.20;;;;;;;-1.70;100.00;99031.28;4894768;29;20045;-77
2021/12/06 04:21:13;;;;;;;84.60;33.90;;;;;;;-1.82;100.00;99026.00;4882412;29;20068;-77
2021/12/06 04:24:00;;;;;;;83.43;32.08;;;;;;;-1.82;100.00;99036.25;4881672;29;20045;-77
2021/12/06 04:26:44;;;;;;;73.50;29.48;;;;;;;-1.89;100.00;99023.34;4881846;29;20093;-77
2021/12/06 04:29:31;;;;;;;76.90;31.45;;;;;;;-1.82;100.00;99026.00;4881540;29;20053;-77
2021/12/06 04:32:16;;;;;;;78.03;31.15;;;;;;;-1.74;100.00;99026.97;4881655;29;20073;-77
2021/12/06 04:35:00;;;;;;;80.15;30.27;;;;;;;-1.72;100.00;99023.56;4881533;29;20128;-77
2021/12/06 04:37:45;;;;;;;81.20;32.05;;;;;;;-1.73;100.00;99026.97;4894691;29;20449;-77
2021/12/06 04:40:31;;;;;;;75.55;29.80;;;;;;;-1.78;100.00;99028.63;4881516;29;20486;-77
2021/12/06 04:43:18;;;;;;;81.15;31.60;;;;;;;-1.79;100.00;99026.03;4881845;29;20144;-77
2021/12/06 04:46:03;;;;;;;81.72;31.15;;;;;;;-1.75;100.00;99020.97;4881531;29;20136;-77
2021/12/06 04:48:47;;;;;;;85.78;32.92;;;;;;;-1.79;100.00;99026.03;4868432;29;20041;-77
2021/12/06 04:51:33;;;;;;;78.53;32.55;;;;;;;-1.72;100.00;99027.84;4881623;29;20048;-77
2021/12/06 04:54:20;;;;;;;87.15;32.78;;;;;;;-1.72;100.00;99018.44;4885747;29;20053;-77
2021/12/06 04:57:13;;;;;;;82.82;29.73;;;;;;;-1.73;100.00;99028.66;4872250;29;20431;-77
2021/12/06 05:00:04;;;;;;;72.88;30.20;;;;;;;-1.78;100.00;99020.06;4886283;29;20095;-77
2021/12/06 05:02:50;;;;;;;87.82;35.30;;;;;;;-1.77;100.00;99025.22;4885366;29;20052;-77
2021/12/06 05:05:39;;;;;;;88.35;32.63;;;;;;;-1.83;100.00;99037.13;4885118;29;20045;-77
2021/12/06 05:08:31;;;;;;;95.18;32.65;;;;;;;-1.78;100.00;99035.47;4872129;29;20048;-77
2021/12/06 05:11:15;;;;;;;81.40;30.42;;;;;;;-1.77;100.00;99037.19;4885320;29;20124;-77
2021/12/06 05:14:03;;;;;;;77.75;31.60;;;;;;;-1.87;100.00;99038.78;4885071;29;20060;-77
2021/12/06 05:16:48;;;;;;;83.93;31.52;;;;;;;-1.77;100.00;99029.50;4872791;29;20072;-77
2021/12/06 05:19:33;;;;;;;82.63;31.77;;;;;;;-1.82;100.00;99039.72;4898454;29;20056;-76
2021/12/06 05:22:18;;;;;;;85.75;32.42;;;;;;;-1.70;100.00;99039.84;4883945;29;20090;-77
2021/12/06 05:25:03;;;;;;;88.55;31.67;;;;;;;-1.73;100.00;99050.06;4896260;29;20420;-77
2021/12/06 05:27:49;;;;;;;85.78;32.33;;;;;;;-1.83;100.00;99049.94;4908194;29;20120;-76
2021/12/06 05:30:36;;;;;;;74.95;28.77;;;;;;;-1.77;100.00;99058.59;4883347;29;20053;-77
2021/12/06 05:33:29;;;;;;;81.80;32.38;;;;;;;-1.79;100.00;99056.84;4883083;29;20041;-76
2021/12/06 05:36:15;;;;;;;88.90;33.38;;;;;;;-1.78;100.00;99068.84;4883034;29;20045;-77
2021/12/06 05:38:59;;;;;;;79.40;29.88;;;;;;;-1.85;100.00;99065.34;4883975;29;20069;-77
2021/12/06 05:41:43;;;;;;;71.90;27.33;;;;;;;-1.90;100.00;99072.97;4883727;29;20354;-77
2021/12/06 05:44:29;;;;;;;79.20;31.10;;;;;;;-1.86;100.00;99079.00;4895791;29;20057;-77
2021/12/06 05:47:13;;;;;;;79.55;28.63;;;;;;;-1.78;100.00;99092.81;4883388;29;20478;-77
2021/12/06 05:49:58;;;;;;;84.10;30.30;;;;;;;-1.75;100.00;99094.56;4883266;29;20049;-77
2021/12/06 05:52:43;;;;;;;94.50;31.92;;;;;;;-1.76;100.00;99093.69;4883253;29;20049;-76
2021/12/06 05:55:28;;;;;;;72.10;27.60;;;;;;;-1.81;100.00;99104.75;4883345;29;20056;-77
2021/12/06 05:58:16;;;;;;;84.90;30.90;;;;;;;-1.74;100.00;99104.84;4884140;29;20041;-76
2021/12/06 06:01:02;;;;;;;82.80;26.67;;;;;;;-1.75;100.00;99103.13;4882792;29;20120;-79
2021/12/06 06:03:46;;;;;;;77.45;29.13;;;;;;;-1.81;100.00;99109.91;4882796;29;20041;-80
2021/12/06 06:06:32;;;;;;;87.72;34.95;;;;;;;-1.69;100.00;99121.19;4882254;29;20451;-80
2021/12/06 06:09:17;;;;;;;66.15;25.30;;;;;;;-1.68;100.00;99122.06;4883096;29;20041;-80
2021/12/06 06:12:04;;;;;;;67.55;28.30;;;;;;;-1.77;100.00;99122.78;4883027;29;20041;-80
2021/12/06 06:14:48;;;;;;;85.20;29.25;;;;;;;-1.62;100.00;99134.13;4882331;29;20053;-80
2021/12/06 06:17:40;;;;;;;74.60;26.77;;;;;;;-1.70;100.00;99129.72;4882549;29;20053;-80
2021/12/06 06:20:46;;;;;;;73.78;26.80;;;;;;;-1.69;100.00;99131.47;4895109;29;20037;-80
2021/12/06 06:23:30;;;;;;;72.65;27.00;;;;;;;-1.70;100.00;99129.72;4882106;29;20049;-80
2021/12/06 06:26:15;;;;;;;64.95;23.75;;;;;;;-1.61;100.00;99130.69;4882564;29;20435;-80
2021/12/06 06:28:59;;;;;;;58.22;23.58;;;;;;;-1.69;100.00;99140.84;4882870;29;20105;-80
2021/12/06 06:31:44;;;;;;;78.32;26.50;;;;;;;-1.72;100.00;99139.13;4882781;29;20057;-80
2021/12/06 06:34:29;;;;;;;70.40;26.33;;;;;;;-1.81;100.00;99148.41;4882691;29;20045;-80
2021/12/06 06:37:13;;;;;;;58.38;23.77;;;;;;;-1.79;100.00;99154.41;4883020;29;20048;-80
2021/12/06 06:39:57;;;;;;;76.90;27.80;;;;;;;-1.63;100.00;99148.63;4883740;29;20045;-80
2021/12/06 06:42:43;;;;;;;64.05;28.45;;;;;;;-1.67;100.00;99141.75;4883421;29;20049;-80
2021/12/06 06:45:27;;;;;;;73.22;28.63;;;;;;;-1.70;100.00;99154.53;4883439;29;20328;-80
2021/12/06 06:48:12;;;;;;;67.10;27.77;;;;;;;-1.68;100.00;99150.28;4883287;29;20037;-80
2021/12/06 06:50:56;;;;;;;84.38;33.05;;;;;;;-1.64;100.00;99164.91;4883956;29;20049;-80
2021/12/06 06:53:40;;;;;;;68.25;27.65;;;;;;;-1.72;100.00;99158.81;4883101;29;20053;-80
2021/12/06 06:56:25;;;;;;;64.95;26.83;;;;;;;-1.68;100.00;99163.13;4883083;29;20045;-80
2021/12/06 06:59:10;;;;;;;61.72;26.90;;;;;;;-1.69;100.00;99164.84;4884051;29;20049;-80
2021/12/06 07:01:54;;;;;;;60.05;25.20;;;;;;;-1.67;100.00;99163.16;4883286;29;20049;-80
2021/12/06 07:04:39;;;;;;;62.35;26.58;;;;;;;-1.63;100.00;99164.03;4883626;29;20045;-80
2021/12/06 07:07:23;;;;;;;67.30;26.80;;;;;;;-1.54;100.00;99176.16;4869762;29;20057;-80
2021/12/06 07:10:09;;;;;;;62.47;26.88;;;;;;;-1.52;100.00;99175.34;4882791;29;20045;-80
2021/12/06 07:12:54;;;;;;;60.58;25.40;;;;;;;-1.59;100.00;99178.69;4869669;29;20114;-80
2021/12/06 07:15:39;;;;;;;59.90;25.25;;;;;;;-1.62;100.00;99178.63;4881613;29;20085;-80
2021/12/06 07:18:23;;;;;;;58.40;27.02;;;;;;;-1.55;100.00;99184.72;4881133;29;20053;-80
2021/12/06 07:21:08;;;;;;;72.43;30.02;;;;;;;-1.57;100.00;99187.25;4882593;29;20049;-80
2021/12/06 07:23:52;;;;;;;65.03;28.75;;;;;;;-1.56;100.00;99178.72;4880974;29;20051;-80
2021/12/06 07:26:37;;;;;;;61.05;27.00;;;;;;;-1.54;100.00;99181.28;4880993;29;20109;-80
2021/12/06 07:29:22;;;;;;;63.50;28.05;;;;;;;-1.50;100.00;99183.06;4880693;29;20078;-80
2021/12/06 07:32:07;;;;;;;65.43;29.63;;;;;;;-1.50;100.00;99178.78;4881587;29;20064;-80
2021/12/06 07:34:51;;;;;;;64.28;29.95;;;;;;;-1.51;100.00;99168.50;4881333;29;20048;-80
2021/12/06 07:37:37;;;;;;;72.53;28.83;;;;;;;-1.50;100.00;99165.94;4881369;29;20101;-80
2021/12/06 07:40:21;;;;;;;68.03;28.27;;;;;;;-1.48;100.00;99164.25;4881271;29;20045;-80
2021/12/06 07:43:06;;;;;;;81.47;36.05;;;;;;;-1.50;100.00;99157.38;4880699;29;20041;-80
2021/12/06 07:45:51;;;;;;;59.92;26.45;;;;;;;-1.47;100.00;99163.41;4881023;29;20403;-80
2021/12/06 07:48:37;;;;;;;71.85;32.38;;;;;;;-1.49;100.00;99159.97;4882818;29;20048;-80
2021/12/06 07:51:23;;;;;;;56.40;29.02;;;;;;;-1.43;100.00;99160.06;4882975;29;20052;-80
2021/12/06 07:54:08;;;;;;;61.97;29.30;;;;;;;-1.40;100.00;99148.94;4882478;29;20096;-80
2021/12/06 07:56:52;;;;;;;65.20;31.60;;;;;;;-1.37;100.00;99151.53;4882472;29;20336;-80
2021/12/06 07:59:38;;;;;;;68.50;32.03;;;;;;;-1.38;100.00;99154.97;4881940;29;20449;-80
2021/12/06 08:02:22;;;;;;;48.30;24.77;;;;;;;-1.45;100.00;99166.00;4882264;29;20057;-80
2021/12/06 08:05:29;;;;;;;50.85;22.60;;;;;;;-1.28;100.00;99164.50;4882030;29;20048;-80
2021/12/06 08:08:19;;;;;;;56.03;28.10;;;;;;;-1.34;100.00;99154.16;4882655;29;20045;-80
2021/12/06 08:11:09;;;;;;;57.55;28.15;;;;;;;-1.29;100.00;99167.94;4882209;29;20466;-80
2021/12/06 08:13:56;;;;;;;70.53;32.50;;;;;;;-1.28;100.00;99167.06;4882732;29;20045;-80
2021/12/06 08:16:43;;;;;;;126.90;52.65;;;;;;;-1.18;100.00;99175.75;4881695;29;20439;-80
2021/12/06 08:19:27;;;;;;;128.05;56.63;;;;;;;-1.17;100.00;99180.03;4880370;29;20049;-80
2021/12/06 08:22:12;;;;;;;48.67;25.95;;;;;;;-1.20;100.00;99186.03;4893384;29;20056;-80
2021/12/06 08:24:56;;;;;;;40.05;20.77;;;;;;;-1.20;100.00;99188.59;4880294;29;20045;-80
2021/12/06 08:27:41;;;;;;;48.35;23.88;;;;;;;-1.12;100.00;99198.97;4880914;29;20339;-80
2021/12/06 08:30:26;;;;;;;54.80;24.23;;;;;;;-1.07;100.00;99199.00;4867240;29;20080;-80
2021/12/06 08:33:12;;;;;;;70.13;29.35;;;;;;;-1.06;100.00;99204.19;4867857;29;20068;-80
2021/12/06 08:35:57;;;;;;;82.28;34.15;;;;;;;-1.13;100.00;99204.09;4880052;29;20087;-80
2021/12/06 08:38:42;;;;;;;53.33;25.80;;;;;;;-1.09;100.00;99217.00;4880442;29;20057;-80
2021/12/06 08:41:28;;;;;;;59.65;27.05;;;;;;;-1.02;100.00;99215.38;4880154;29;20049;-80
2021/12/06 08:44:13;;;;;;;94.10;33.05;;;;;;;-1.10;100.00;99215.28;4880086;29;20052;-80
2021/12/06 08:46:58;;;;;;;44.67;22.85;;;;;;;-1.09;100.00;99224.72;4880479;29;20051;-80
2021/12/06 08:49:44;;;;;;;54.35;25.15;;;;;;;-1.06;100.00;99219.59;4880975;29;20057;-80
2021/12/06 08:52:30;;;;;;;37.70;21.00;;;;;;;-1.11;100.00;99222.97;4868823;29;20073;-80
2021/12/06 08:55:15;;;;;;;90.47;29.23;;;;;;;-1.08;100.00;99230.72;4881935;29;20060;-80
2021/12/06 08:58:01;;;;;;;45.47;23.00;;;;;;;-0.96;100.00;99224.00;4881895;29;20041;-80
2021/12/06 09:00:46;;;;;;;65.78;25.48;;;;;;;-0.97;100.00;99242.88;4882154;29;20108;-80
2021/12/06 09:03:30;;;;;;;83.22;29.27;;;;;;;-1.08;100.00;99233.28;4882259;29;20088;-80
2021/12/06 09:06:15;;;;;;;108.28;34.75;;;;;;;-1.06;100.00;99239.31;4882201;29;20128;-80
2021/12/06 09:09:01;;;;;;;39.65;21.00;;;;;;;-1.12;100.00;99244.38;4881885;29;20101;-79
2021/12/06 09:11:48;;;;;;;85.90;35.20;;;;;;;-1.27;100.00;99250.16;4883105;29;20048;-80
2021/12/06 09:14:32;;;;;;;78.75;28.40;;;;;;;-1.04;100.00;99263.31;4881568;29;20045;-80
2021/12/06 09:17:17;;;;;;;162.70;46.10;;;;;;;-1.01;100.00;99268.50;4882971;29;20416;-80
2021/12/06 09:20:04;;;;;;;62.35;24.98;;;;;;;-1.13;100.00;99265.78;4868450;29;20068;-80
2021/12/06 09:22:49;;;;;;;79.85;28.55;;;;;;;-1.23;100.00;99260.53;4882123;29;20114;-80
2021/12/06 09:25:35;;;;;;;33.60;18.90;;;;;;;-1.16;100.00;99268.31;4881091;29;20076;-80
2021/12/06 09:28:19;;;;;;;34.08;18.30;;;;;;;-1.28;100.00;99267.28;4881916;29;20045;-80
2021/12/06 09:31:05;;;;;;;40.10;22.88;;;;;;;-1.24;100.00;99269.06;4882203;29;20143;-80
2021/12/06 09:33:51;;;;;;;59.03;28.77;;;;;;;-1.18;100.00;99268.28;4894479;29;20053;-80
2021/12/06 09:36:36;;;;;;;49.20;27.33;;;;;;;-1.18;100.00;99265.72;4881131;29;20053;-80
2021/12/06 09:39:21;;;;;;;59.10;28.20;;;;;;;-1.19;100.00;99270.00;4870150;29;20416;-80
2021/12/06 09:42:07;;;;;;;45.58;24.95;;;;;;;-1.09;100.00;99265.84;4885349;29;20120;-80
2021/12/06 09:44:53;;;;;;;55.20;28.80;;;;;;;-1.13;100.00;99261.50;4884462;29;20067;-80
2021/12/06 09:47:38;;;;;;;58.92;29.17;;;;;;;-1.16;100.00;99261.47;4885161;29;20136;-80
2021/12/06 09:50:32;;;;;;;65.10;31.77;;;;;;;-1.24;100.00;99263.91;4884368;29;20053;-79
2021/12/06 09:53:18;;;;;;;;;;;;;;;-1.30;100.00;99266.44;4884833;29;20060;-80
2021/12/06 09:56:07;;;;;;;49.15;26.40;;;;;;;-1.22;100.00;99266.53;4885140;29;19991;-80
2021/12/06 09:58:55;;;;;;;54.38;27.02;;;;;;;-1.26;100.00;99268.19;4884615;29;20045;-79
2021/12/06 10:01:44;;;;;;;52.53;26.27;;;;;;;-1.12;100.00;99268.38;4884241;29;20045;-79
2021/12/06 10:04:32;;;;;;;72.10;31.98;;;;;;;-1.06;100.00;99267.59;4885013;29;20081;-80
2021/12/06 10:07:18;;;;;;;51.55;26.95;;;;;;;-1.22;100.00;99258.81;4884539;29;20052;-79
2021/12/06 10:10:05;;;;;;;57.60;27.63;;;;;;;-1.06;100.00;99263.31;4883726;29;20056;-80
2021/12/06 10:12:52;;;;;;;47.88;25.35;;;;;;;-1.00;100.00;99254.81;4884216;29;20056;-79
2021/12/06 10:15:36;;;;;;;67.10;31.85;;;;;;;-0.99;100.00;99247.13;4885487;29;20076;-79
2021/12/06 10:18:21;;;;;;;55.97;28.45;;;;;;;-1.22;100.00;99251.97;4885814;29;20363;-80
2021/12/06 10:21:06;;;;;;;58.50;27.95;;;;;;;-1.05;100.00;99257.31;4885786;29;20056;-79
2021/12/06 10:23:51;;;;;;;46.20;24.08;;;;;;;-1.13;100.00;99264.09;4885694;29;20119;-80
2021/12/06 10:26:35;;;;;;;43.78;24.77;;;;;;;-1.11;100.00;99267.50;4886344;29;20048;-80
2021/12/06 10:29:22;;;;;;;67.50;31.13;;;;;;;-0.96;100.00;99267.72;4885927;29;20049;-80
2021/12/06 10:32:18;;;;;;;70.13;30.10;;;;;;;-0.86;100.00;99263.56;4885327;29;20423;-80
2021/12/06 10:35:08;;;;;;;54.83;29.95;;;;;;;-0.81;100.00;99261.91;4883710;29;20439;-79
2021/12/06 10:37:56;;;;;;;68.28;29.77;;;;;;;-0.98;100.00;99264.25;4884497;29;20467;-80
2021/12/06 10:40:41;;;;;;;51.30;26.98;;;;;;;-0.98;100.00;99258.25;4883667;29;20072;-79
2021/12/06 10:43:26;;;;;;;50.40;26.63;;;;;;;-1.01;100.00;99261.69;4883726;29;20411;-79
2021/12/06 10:46:10;;;;;;;44.28;23.58;;;;;;;-1.09;100.00;99255.56;4884547;29;20049;-79
2021/12/06 10:48:57;;;;;;;45.88;24.73;;;;;;;-1.07;100.00;99253.00;4884442;29;20045;-79
2021/12/06 10:51:42;;;;;;;60.15;32.80;;;;;;;-1.09;100.00;99264.97;4896631;29;20407;-79
2021/12/06 10:54:38;;;;;;;60.33;29.88;;;;;;;-0.98;100.00;99268.53;4896659;29;20053;-79
2021/12/06 10:57:22;;;;;;;59.70;32.15;;;;;;;-0.98;100.00;99255.69;4883590;29;20052;-79
2021/12/06 11:00:06;;;;;;;37.75;21.95;;;;;;;-1.06;100.00;99265.88;4883342;29;20037;-79
2021/12/06 11:02:51;;;;;;;52.20;25.50;;;;;;;-1.00;100.00;99267.69;4883867;29;20045;-79
2021/12/06 11:05:36;;;;;;;54.28;27.35;;;;;;;-0.87;100.00;99271.25;4883619;29;20048;-79
2021/12/06 11:08:22;;;;;;;44.17;22.65;;;;;;;-0.78;100.00;99268.78;4872759;29;20052;-79
2021/12/06 11:11:12;;;;;;;53.88;26.83;;;;;;;-0.56;100.00;99262.19;4885716;29;20045;-79
2021/12/06 11:14:01;;;;;;;54.90;28.63;;;;;;;-0.65;100.00;99273.25;4885376;29;20109;-79
2021/12/06 11:16:49;;;;;;;82.30;36.88;;;;;;;-0.63;100.00;99265.53;4885941;29;20053;-79
2021/12/06 11:19:35;;;;;;;65.72;29.42;;;;;;;-0.61;100.00;99276.72;4884771;29;20045;-80
2021/12/06 11:22:22;;;;;;;49.63;26.45;;;;;;;-0.58;100.00;99264.75;4882804;29;20053;-79
2021/12/06 11:25:09;;;;;;;52.60;27.27;;;;;;;-0.69;100.00;99261.19;4882435;29;20045;-80
2021/12/06 11:27:53;;;;;;;43.92;22.77;;;;;;;-0.62;100.00;99254.38;4880978;29;20048;-79
2021/12/06 11:30:38;;;;;;;54.45;27.58;;;;;;;-0.51;100.00;99263.97;4881865;29;20045;-79
2021/12/06 11:33:32;;;;;;;43.28;23.20;;;;;;;-0.45;100.00;99255.44;4882651;29;20068;-80
2021/12/06 11:36:25;;;;;;;46.60;24.90;;;;;;;-0.40;100.00;99261.50;4882603;29;20059;-79
2021/12/06 11:39:16;;;;;;;65.00;29.25;;;;;;;-0.50;100.00;99269.97;4882446;29;20057;-80
2021/12/06 11:42:01;;;;;;;55.50;26.80;;;;;;;-0.52;100.00;99258.78;4882264;29;20053;-79
2021/12/06 11:44:46;;;;;;;44.22;26.30;;;;;;;-0.70;100.00;99269.75;4869211;29;20117;-80
2021/12/06 11:47:30;;;;;;;38.35;22.35;;;;;;;-0.79;100.00;99270.50;4883307;29;20056;-80
2021/12/06 11:50:15;;;;;;;36.53;21.40;;;;;;;-0.85;100.00;99262.69;4895561;29;20049;-80
2021/12/06 11:53:07;;;;;;;48.10;25.02;;;;;;;-0.78;100.00;99258.50;4882278;29;20049;-80
2021/12/06 11:56:06;;;;;;;57.08;28.00;;;;;;;-0.50;100.00;99268.25;4882946;29;20056;-80
2021/12/06 11:58:53;;;;;;;61.47;29.27;;;;;;;-0.55;100.00;99266.50;4882720;29;20045;-80
2021/12/06 12:01:51;;;;;;;43.28;24.10;;;;;;;-0.53;100.00;99272.50;4882771;29;20040;-80
2021/12/06 12:04:35;;;;;;;35.40;21.05;;;;;;;-0.83;100.00;99260.16;4882265;29;20045;-80
2021/12/06 12:07:19;;;;;;;42.28;23.20;;;;;;;-0.54;100.00;99263.94;4883269;29;20049;-80
2021/12/06 12:10:04;;;;;;;35.33;21.15;;;;;;;-0.65;100.00;99269.78;4885194;29;20045;-80
2021/12/06 12:12:55;;;;;;;45.00;23.23;;;;;;;-0.50;100.00;99273.41;4895490;29;20045;-80
2021/12/06 12:15:39;;;;;;;43.00;23.15;;;;;;;-0.69;100.00;99280.91;4883225;29;20045;-80
2021/12/06 12:18:25;;;;;;;39.17;22.17;;;;;;;-0.62;100.00;99274.97;4884568;29;20419;-80
2021/12/06 12:21:10;;;;;;;38.85;21.95;;;;;;;-0.49;100.00;99275.16;4884653;29;20052;-80
2021/12/06 12:23:54;;;;;;;41.03;23.48;;;;;;;-0.64;100.00;99277.53;4883784;29;20068;-80
2021/12/06 12:26:43;;;;;;;32.67;21.27;;;;;;;-0.72;100.00;99279.13;4884418;29;20040;-80
2021/12/06 12:29:28;;;;;;;34.63;19.90;;;;;;;-0.68;100.00;99282.59;4870920;29;20061;-80
2021/12/06 12:32:15;;;;;;;41.80;22.48;;;;;;;-0.59;100.00;99285.28;4883533;29;20061;-80
2021/12/06 12:35:04;;;;;;;46.65;27.55;;;;;;;-0.63;100.00;99286.97;4883882;29;20057;-80
2021/12/06 12:37:51;;;;;;;45.58;25.40;;;;;;;-0.61;100.00;99287.88;4881820;29;20068;-80
2021/12/06 12:40:58;;;;;;;41.22;26.10;;;;;;;-0.66;100.00;99284.34;4882450;29;20049;-80
2021/12/06 12:43:44;;;;;;;57.42;28.50;;;;;;;-0.83;100.00;99291.03;4881795;29;20052;-80
2021/12/06 12:46:40;;;;;;;44.33;26.70;;;;;;;-0.72;100.00;99281.72;4882758;29;20045;-80
2021/12/06 12:49:30;;;;;;;43.65;28.27;;;;;;;-0.67;100.00;99280.06;4882584;29;20052;-80